Time;durP1;ratioP1;P1;durP2;ratioP2;P2;SDS_P1;SDS_P2;PMS_P1;PMS_P2;Temp;Humidity;BMP_temperature;BMP_pressure;BME280_temperature;BME280_humidity;BME280_pressure;Samples;Min_cycle;Max_cycle;Signal;HPM_P1;HPM_P2
2023/09/30 00:00:22;;;;;;;34.55;15.43;;;;;;;16.32;100.00;97493.22;4966850;28;20468;-67
2023/09/30 00:02:47;;;;;;;35.78;13.98;;;;;;;16.19;100.00;97501.81;4977051;28;20125;-69
2023/09/30 00:05:14;;;;;;;32.97;14.93;;;;;;;15.95;100.00;97500.44;4967991;28;20565;-68
2023/09/30 00:07:40;;;;;;;35.10;14.95;;;;;;;15.74;100.00;97505.78;4971241;28;20043;-70
2023/09/30 00:10:06;;;;;;;37.28;15.65;;;;;;;15.77;100.00;97505.84;4959791;28;20094;-69
2023/09/30 00:12:32;;;;;;;34.00;15.02;;;;;;;15.90;100.00;97502.75;4981025;28;20049;-69
2023/09/30 00:14:58;;;;;;;34.65;15.02;;;;;;;16.03;100.00;97515.91;4969349;28;20043;-69
2023/09/30 00:17:23;;;;;;;42.92;17.85;;;;;;;16.19;100.00;97501.03;4979501;28;20504;-69
2023/09/30 00:19:49;;;;;;;36.67;14.43;;;;;;;16.33;100.00;97503.06;4975635;28;20106;-67
2023/09/30 00:22:14;;;;;;;32.47;14.68;;;;;;;16.38;100.00;97499.97;4977539;28;20042;-69
2023/09/30 00:24:40;;;;;;;35.58;14.63;;;;;;;16.36;100.00;97507.84;4966106;28;20031;-69
2023/09/30 00:27:05;;;;;;;36.25;15.18;;;;;;;16.35;100.00;97511.78;4960677;28;20035;-66
2023/09/30 00:29:30;;;;;;;33.17;14.63;;;;;;;16.29;100.00;97514.13;4965786;28;20513;-68
2023/09/30 00:31:56;;;;;;;33.40;14.20;;;;;;;16.29;100.00;97516.88;4965354;28;20035;-69
2023/09/30 00:34:21;;;;;;;38.20;16.15;;;;;;;16.28;100.00;97503.44;4975176;28;21000;-68
2023/09/30 00:36:47;;;;;;;37.90;14.88;;;;;;;16.24;100.00;97506.16;4965601;28;20027;-69
2023/09/30 00:39:13;;;;;;;35.38;15.38;;;;;;;16.20;100.00;97508.91;4961320;28;20047;-68
2023/09/30 00:41:39;;;;;;;33.88;14.15;;;;;;;16.30;100.00;97507.41;4990156;28;20046;-67
2023/09/30 00:44:04;;;;;;;36.08;14.27;;;;;;;16.32;100.00;97502.28;4979216;28;20437;-66
2023/09/30 00:46:32;;;;;;;36.00;15.15;;;;;;;16.28;100.00;97495.97;4972864;28;20042;-68
2023/09/30 00:48:58;;;;;;;40.78;16.27;;;;;;;16.25;100.00;97507.78;4974048;28;20050;-68
2023/09/30 00:51:25;;;;;;;37.38;15.13;;;;;;;16.20;100.00;97503.38;4977875;28;20047;-69
2023/09/30 00:53:56;;;;;;;33.83;14.40;;;;;;;16.22;100.00;97503.00;4967052;28;20351;-68
2023/09/30 00:56:24;;;;;;;31.83;14.32;;;;;;;16.27;100.00;97499.09;4970725;28;20057;-68
2023/09/30 00:58:52;;;;;;;37.55;14.80;;;;;;;16.33;100.00;97489.25;4984631;28;20042;-69
2023/09/30 01:01:19;;;;;;;32.00;14.13;;;;;;;16.39;100.00;97496.81;4977067;28;20102;-69
2023/09/30 01:03:48;;;;;;;34.35;14.27;;;;;;;16.38;100.00;97494.44;4976091;28;20059;-69
2023/09/30 01:06:14;;;;;;;33.75;14.55;;;;;;;16.29;100.00;97491.22;4972003;28;20066;-69
2023/09/30 01:08:39;;;;;;;31.52;14.07;;;;;;;16.29;100.00;97496.75;4980202;28;20074;-68
2023/09/30 01:11:05;;;;;;;31.73;13.82;;;;;;;16.34;100.00;97488.09;4982557;28;20133;-68
2023/09/30 01:13:35;;;;;;;36.30;15.05;;;;;;;16.12;100.00;97479.66;4972450;28;20097;-70
2023/09/30 01:16:09;;;;;;;38.17;14.52;;;;;;;15.82;100.00;97486.13;4965024;28;20047;-69
2023/09/30 01:18:36;;;;;;;37.92;15.02;;;;;;;15.66;100.00;97482.81;4965595;28;20042;-69
2023/09/30 01:21:06;;;;;;;32.80;13.57;;;;;;;15.67;100.00;97489.94;4976134;28;20039;-70
2023/09/30 01:23:32;;;;;;;37.05;14.15;;;;;;;15.74;100.00;97494.72;4986595;28;20367;-69
2023/09/30 01:26:12;;;;;;;33.75;13.88;;;;;;;15.82;100.00;97499.16;4964173;28;20041;-69
2023/09/30 01:28:38;;;;;;;30.90;12.93;;;;;;;15.93;100.00;97491.75;4964453;28;20035;-69
2023/09/30 01:31:04;;;;;;;37.85;14.65;;;;;;;15.96;100.00;97488.22;4962543;28;20102;-66
2023/09/30 01:33:30;;;;;;;32.55;14.25;;;;;;;15.89;100.00;97479.09;4981453;28;20038;-72
2023/09/30 01:35:56;;;;;;;35.88;13.82;;;;;;;15.41;100.00;97469.59;4978974;28;20057;-68
2023/09/30 01:38:21;;;;;;;38.97;15.13;;;;;;;15.03;100.00;97473.50;4960130;28;20268;-69
2023/09/30 01:40:47;;;;;;;37.45;14.70;;;;;;;15.09;100.00;97474.78;4966358;28;20035;-68
2023/09/30 01:43:13;;;;;;;34.03;13.85;;;;;;;15.08;100.00;97468.44;4974109;28;20045;-68
2023/09/30 01:45:40;;;;;;;37.42;15.05;;;;;;;14.85;100.00;97465.81;4971000;28;20045;-68
2023/09/30 01:48:06;;;;;;;38.17;14.13;;;;;;;14.74;100.00;97469.63;4980098;28;20046;-66
2023/09/30 01:50:32;;;;;;;42.22;15.05;;;;;;;14.71;100.00;97468.41;4964415;28;20039;-67
2023/09/30 01:52:57;;;;;;;37.50;14.32;;;;;;;14.83;100.00;97475.66;4966281;28;20121;-67
2023/09/30 01:55:23;;;;;;;39.35;14.32;;;;;;;15.04;100.00;97477.88;4977793;28;20050;-67
2023/09/30 01:57:48;;;;;;;36.78;13.90;;;;;;;15.23;100.00;97472.16;4968068;28;20038;-67
2023/09/30 02:00:14;;;;;;;31.17;13.05;;;;;;;15.39;100.00;97469.16;4958669;28;20046;-67
2023/09/30 02:02:39;;;;;;;35.50;13.73;;;;;;;15.53;100.00;97474.03;4963565;28;20049;-67
2023/09/30 02:05:08;;;;;;;38.00;14.57;;;;;;;15.60;100.00;97476.06;4964162;28;20034;-68
2023/09/30 02:07:34;;;;;;;32.42;13.52;;;;;;;15.61;100.00;97477.63;4962689;28;20050;-67
2023/09/30 02:10:01;;;;;;;40.15;15.95;;;;;;;15.64;100.00;97474.13;4963885;28;20074;-67
2023/09/30 02:12:28;;;;;;;36.10;13.43;;;;;;;15.76;100.00;97482.16;4975308;28;20038;-69
2023/09/30 02:14:54;;;;;;;37.83;13.60;;;;;;;15.89;100.00;97476.34;4963683;28;20061;-68
2023/09/30 02:17:19;;;;;;;57.17;21.63;;;;;;;15.96;100.00;97466.13;4969383;28;20034;-69
2023/09/30 02:19:45;;;;;;;35.13;13.30;;;;;;;16.04;100.00;97465.00;4971519;28;20042;-69
2023/09/30 02:22:11;;;;;;;34.33;13.57;;;;;;;15.99;100.00;97462.59;4959291;28;20042;-69
2023/09/30 02:24:37;;;;;;;37.35;13.65;;;;;;;15.94;100.00;97464.94;4963854;28;20063;-69
2023/09/30 02:27:03;;;;;;;35.20;13.85;;;;;;;15.72;100.00;97459.22;4975889;28;20131;-64
2023/09/30 02:29:28;;;;;;;33.00;12.95;;;;;;;15.67;100.00;97459.56;4963920;28;20050;-68
2023/09/30 02:31:54;;;;;;;37.15;13.70;;;;;;;15.57;100.00;97455.50;4964019;28;20050;-68
2023/09/30 02:34:20;;;;;;;34.15;13.40;;;;;;;15.55;100.00;97457.88;4965180;28;20046;-68
2023/09/30 02:36:45;;;;;;;33.03;13.35;;;;;;;15.66;100.00;97458.78;4980082;28;20034;-69
2023/09/30 02:39:11;;;;;;;30.25;12.52;;;;;;;15.69;100.00;97454.44;4978113;28;20493;-68
2023/09/30 02:41:37;;;;;;;39.25;13.75;;;;;;;15.75;100.00;97452.94;4968200;28;20375;-68
2023/09/30 02:44:04;;;;;;;33.05;12.73;;;;;;;15.82;100.00;97463.25;4964727;28;20494;-66
2023/09/30 02:46:29;;;;;;;30.00;12.27;;;;;;;15.74;100.00;97464.34;4961255;28;20046;-68
2023/09/30 02:48:55;;;;;;;35.72;14.02;;;;;;;15.50;100.00;97458.22;4962929;28;20045;-68
2023/09/30 02:51:20;;;;;;;36.45;14.30;;;;;;;15.32;100.00;97463.56;4958136;28;20042;-68
2023/09/30 02:53:48;;;;;;;35.03;12.98;;;;;;;15.41;100.00;97464.06;4964432;28;20035;-69
2023/09/30 02:56:13;;;;;;;33.13;13.45;;;;;;;15.55;100.00;97468.13;4960159;28;20046;-70
2023/09/30 02:58:40;;;;;;;32.72;12.88;;;;;;;15.27;100.00;97456.44;4969543;28;20037;-68
2023/09/30 03:01:06;;;;;;;36.55;14.95;;;;;;;15.14;100.00;97454.31;4958313;28;20075;-68
2023/09/30 03:03:33;;;;;;;33.70;12.98;;;;;;;15.09;100.00;97450.72;4962873;28;20038;-68
2023/09/30 03:06:00;;;;;;;33.47;13.70;;;;;;;15.18;100.00;97463.41;4976345;28;20038;-68
2023/09/30 03:08:26;;;;;;;33.38;12.77;;;;;;;15.24;100.00;97467.44;4959275;28;20054;-68
2023/09/30 03:10:52;;;;;;;35.22;13.02;;;;;;;15.31;100.00;97462.00;4968489;28;20038;-67
2023/09/30 03:13:18;;;;;;;31.05;12.65;;;;;;;15.36;100.00;97464.41;4968218;28;20105;-68
2023/09/30 03:15:44;;;;;;;35.40;13.50;;;;;;;15.47;100.00;97468.06;4978394;28;20078;-68
2023/09/30 03:18:11;;;;;;;30.77;12.93;;;;;;;15.57;100.00;97457.50;4976537;28;20500;-67
2023/09/30 03:20:40;;;;;;;30.75;12.45;;;;;;;15.63;100.00;97467.81;4975700;28;20038;-67
2023/09/30 03:23:05;;;;;;;32.13;11.70;;;;;;;15.62;100.00;97465.44;4961567;28;20047;-67
2023/09/30 03:25:32;;;;;;;33.95;12.65;;;;;;;15.59;100.00;97475.28;4962492;28;20049;-66
2023/09/30 03:27:57;;;;;;;35.47;12.45;;;;;;;15.62;100.00;97468.97;4961909;28;20098;-69
2023/09/30 03:30:24;;;;;;;27.83;11.93;;;;;;;15.67;100.00;97467.84;4955286;28;20995;-69
2023/09/30 03:32:49;;;;;;;28.77;12.18;;;;;;;15.71;100.00;97470.63;4962417;28;20042;-68
2023/09/30 03:35:16;;;;;;;29.58;12.30;;;;;;;15.77;100.00;97469.94;4959262;28;20090;-69
2023/09/30 03:37:44;;;;;;;29.40;11.43;;;;;;;15.85;100.00;97468.81;4967055;28;20046;-69
2023/09/30 03:40:19;;;;;;;29.90;10.07;;;;;;;15.91;100.00;97465.69;4970275;28;20042;-69
2023/09/30 03:42:45;;;;;;;26.63;10.55;;;;;;;15.85;100.00;97468.81;4979336;28;20062;-69
2023/09/30 03:45:13;;;;;;;28.55;11.43;;;;;;;15.81;100.00;97475.47;4968348;28;20046;-68
2023/09/30 03:47:40;;;;;;;29.25;10.80;;;;;;;15.70;100.00;97475.38;4964733;28;20038;-68
2023/09/30 03:50:12;;;;;;;27.33;10.88;;;;;;;15.66;100.00;97474.53;4960645;28;20569;-67
2023/09/30 03:52:38;;;;;;;36.20;12.48;;;;;;;15.35;100.00;97468.34;4974560;28;20074;-67
2023/09/30 03:55:05;;;;;;;34.53;12.45;;;;;;;14.99;100.00;97464.41;4972369;28;20057;-64
2023/09/30 03:57:34;;;;;;;29.92;12.35;;;;;;;14.88;100.00;97469.81;4978087;28;20126;-69
2023/09/30 04:00:00;;;;;;;32.10;12.57;;;;;;;14.82;100.00;97469.34;4967778;28;20089;-69
2023/09/30 04:02:26;;;;;;;32.30;12.25;;;;;;;14.82;100.00;97474.06;4959110;28;20049;-69
2023/09/30 04:04:53;;;;;;;36.58;13.68;;;;;;;15.02;100.00;97478.25;4977257;28;20038;-68
2023/09/30 04:07:19;;;;;;;29.38;11.95;;;;;;;15.12;100.00;97482.28;4969571;28;20410;-69
2023/09/30 04:09:44;;;;;;;29.02;11.45;;;;;;;15.25;100.00;97475.34;4965953;28;20043;-68
2023/09/30 04:12:10;;;;;;;31.63;11.43;;;;;;;15.41;100.00;97477.06;4976559;28;20047;-67
2023/09/30 04:14:35;;;;;;;29.23;10.48;;;;;;;15.45;100.00;97475.94;4973329;28;20035;-67
2023/09/30 04:17:01;;;;;;;32.45;11.57;;;;;;;15.46;100.00;97468.44;4967060;28;20089;-68
2023/09/30 04:19:26;;;;;;;30.05;11.15;;;;;;;15.41;100.00;97466.81;4960895;28;20510;-68
2023/09/30 04:21:52;;;;;;;28.55;11.30;;;;;;;15.45;100.00;97461.34;4970271;28;20129;-68
2023/09/30 04:24:19;;;;;;;29.67;11.27;;;;;;;15.55;100.00;97460.63;4963889;28;20498;-68
2023/09/30 04:26:45;;;;;;;34.05;10.93;;;;;;;15.65;100.00;97459.94;4969130;28;20038;-68
2023/09/30 04:29:11;;;;;;;28.50;11.20;;;;;;;15.65;100.00;97454.41;4984288;28;20082;-67
2023/09/30 04:31:39;;;;;;;30.33;11.07;;;;;;;15.55;100.00;97440.50;4979582;28;20039;-68
2023/09/30 04:34:04;;;;;;;28.58;11.15;;;;;;;15.59;100.00;97453.19;4978627;28;20046;-67
2023/09/30 04:36:30;;;;;;;30.75;11.07;;;;;;;15.60;100.00;97452.00;4994065;28;20061;-68
2023/09/30 04:38:56;;;;;;;29.27;10.55;;;;;;;15.39;100.00;97447.06;4966595;28;20456;-67
2023/09/30 04:41:21;;;;;;;26.50;10.90;;;;;;;15.15;100.00;97455.91;4962391;28;20521;-67
2023/09/30 04:43:47;;;;;;;31.45;11.73;;;;;;;14.63;100.00;97456.50;4981655;28;20439;-68
2023/09/30 04:46:13;;;;;;;28.00;11.27;;;;;;;14.62;100.00;97452.16;4961359;28;20043;-67
2023/09/30 04:48:39;;;;;;;33.17;12.00;;;;;;;14.62;100.00;97465.16;4965687;28;20602;-67
2023/09/30 04:51:08;;;;;;;28.35;11.10;;;;;;;14.89;100.00;97472.19;4969879;28;20038;-65
2023/09/30 04:53:34;;;;;;;28.13;11.25;;;;;;;14.87;100.00;97480.06;4975011;28;20531;-68
2023/09/30 04:56:00;;;;;;;32.20;11.70;;;;;;;14.90;100.00;97484.00;4966081;28;20047;-68
2023/09/30 04:58:26;;;;;;;25.98;11.50;;;;;;;15.02;100.00;97496.78;4962952;28;20051;-68
2023/09/30 05:00:52;;;;;;;29.33;10.07;;;;;;;15.12;100.00;97495.28;4965009;28;20047;-67
2023/09/30 05:03:19;;;;;;;26.83;10.65;;;;;;;15.21;100.00;97493.03;4957748;28;20050;-68
2023/09/30 05:05:44;;;;;;;28.05;10.93;;;;;;;15.32;100.00;97479.34;4975301;28;20417;-67
2023/09/30 05:08:11;;;;;;;27.25;10.48;;;;;;;15.35;100.00;97481.34;4964301;28;20050;-67
2023/09/30 05:10:36;;;;;;;27.17;10.98;;;;;;;15.25;100.00;97480.88;4984894;28;20046;-67
2023/09/30 05:13:02;;;;;;;29.67;11.25;;;;;;;15.18;100.00;97474.44;4975929;28;20050;-67
2023/09/30 05:15:31;;;;;;;29.05;11.13;;;;;;;15.21;100.00;97482.78;4960695;28;20071;-67
2023/09/30 05:17:57;;;;;;;27.37;10.00;;;;;;;15.36;100.00;97491.19;4974585;28;20465;-68
2023/09/30 05:20:22;;;;;;;28.15;10.85;;;;;;;15.41;100.00;97494.44;4960604;28;20365;-67
2023/09/30 05:22:51;;;;;;;26.50;9.80;;;;;;;15.44;100.00;97498.38;4964987;28;20116;-67
2023/09/30 05:25:16;;;;;;;26.80;9.85;;;;;;;15.44;100.00;97499.19;4959868;28;20035;-68
2023/09/30 05:27:43;;;;;;;26.90;10.10;;;;;;;15.55;100.00;97510.31;4965217;28;20153;-67
2023/09/30 05:30:10;;;;;;;26.13;8.60;;;;;;;15.57;100.00;97515.47;4964284;28;20066;-69
2023/09/30 05:32:38;;;;;;;22.52;8.95;;;;;;;15.61;100.00;97517.09;4972159;28;20090;-68
2023/09/30 05:35:05;;;;;;;22.70;8.75;;;;;;;15.56;100.00;97511.13;4962248;28;20073;-68
2023/09/30 05:37:31;;;;;;;24.05;9.02;;;;;;;15.41;100.00;97510.19;4964981;28;20478;-69
2023/09/30 05:39:56;;;;;;;26.63;9.23;;;;;;;15.26;100.00;97501.75;4963865;28;20058;-67
2023/09/30 05:42:22;;;;;;;25.65;9.25;;;;;;;15.26;100.00;97504.50;4968638;28;20603;-67
2023/09/30 05:44:48;;;;;;;23.38;9.02;;;;;;;15.06;100.00;97511.38;4971198;28;20045;-66
2023/09/30 05:47:15;;;;;;;24.63;9.45;;;;;;;14.97;100.00;97510.88;4973476;28;20039;-67
2023/09/30 05:49:41;;;;;;;22.05;9.80;;;;;;;14.99;100.00;97509.34;4964233;28;20049;-69
2023/09/30 05:52:07;;;;;;;22.98;9.38;;;;;;;14.82;100.00;97502.44;4959261;28;20039;-67
2023/09/30 05:54:32;;;;;;;26.63;10.05;;;;;;;14.48;100.00;97504.34;4963882;28;20049;-69
2023/09/30 05:56:57;;;;;;;27.52;9.48;;;;;;;14.42;100.00;97506.63;4970317;28;20370;-68
2023/09/30 05:59:24;;;;;;;28.88;10.18;;;;;;;14.45;100.00;97500.34;4969009;28;20802;-68
2023/09/30 06:01:50;;;;;;;27.70;10.15;;;;;;;14.24;100.00;97498.09;4965488;28;20034;-67
2023/09/30 06:04:16;;;;;;;30.90;11.60;;;;;;;14.30;100.00;97507.63;4959571;28;20073;-68
2023/09/30 06:06:42;;;;;;;29.40;10.52;;;;;;;14.47;100.00;97522.81;4981675;28;20049;-68
2023/09/30 06:09:08;;;;;;;27.48;10.55;;;;;;;14.72;100.00;97528.69;4979307;28;20049;-68
2023/09/30 06:11:34;;;;;;;28.00;10.50;;;;;;;14.90;100.00;97530.91;4976131;28;20050;-68
2023/09/30 06:14:00;;;;;;;25.45;9.68;;;;;;;15.06;100.00;97530.69;4969389;28;20141;-67
2023/09/30 06:16:26;;;;;;;27.10;10.20;;;;;;;15.20;100.00;97535.59;4964304;28;20047;-69
2023/09/30 06:18:53;;;;;;;25.27;9.63;;;;;;;15.26;100.00;97540.38;4963885;28;20043;-67
2023/09/30 06:21:20;;;;;;;28.25;9.82;;;;;;;15.32;100.00;97540.06;4958472;28;20042;-69
2023/09/30 06:23:47;;;;;;;22.27;9.13;;;;;;;15.47;100.00;97547.31;4961851;28;20409;-69
2023/09/30 06:26:13;;;;;;;23.70;8.80;;;;;;;15.62;100.00;97548.25;4958299;28;20038;-69
2023/09/30 06:28:40;;;;;;;26.00;9.85;;;;;;;15.74;100.00;97548.03;4977660;28;20037;-69
2023/09/30 06:31:10;;;;;;;25.60;9.77;;;;;;;15.88;100.00;97544.56;4966032;28;20494;-68
2023/09/30 06:33:38;;;;;;;28.83;8.65;;;;;;;15.75;100.00;97546.03;4973536;28;20047;-67
2023/09/30 06:36:08;;;;;;;26.42;10.07;;;;;;;15.16;100.00;97531.97;4960815;28;20125;-68
2023/09/30 06:38:34;;;;;;;27.65;9.90;;;;;;;15.04;100.00;97533.03;4962901;28;20059;-69
2023/09/30 06:40:59;;;;;;;25.45;9.73;;;;;;;15.27;100.00;97536.47;4963058;28;20112;-69
2023/09/30 06:43:25;;;;;;;23.48;9.77;;;;;;;15.25;100.00;97529.72;4976258;28;20050;-68
2023/09/30 06:45:51;;;;;;;23.50;9.05;;;;;;;15.14;100.00;97526.84;4963145;28;20212;-69
2023/09/30 06:48:16;;;;;;;21.75;8.52;;;;;;;15.42;100.00;97537.41;4958239;28;20516;-68
2023/09/30 06:50:48;;;;;;;20.77;8.27;;;;;;;15.65;100.00;97555.78;4962718;28;20502;-69
2023/09/30 06:53:18;;;;;;;23.08;8.95;;;;;;;16.13;100.00;97555.84;4957868;28;20105;-67
2023/09/30 06:55:44;;;;;;;20.75;7.85;;;;;;;17.16;100.00;97549.38;4963084;28;20549;-69
2023/09/30 06:58:10;;;;;;;22.08;9.10;;;;;;;18.25;100.00;97555.94;4958074;28;20085;-68
2023/09/30 07:00:37;;;;;;;22.35;9.13;;;;;;;18.69;100.00;97579.66;4959959;28;20161;-69
2023/09/30 07:03:02;;;;;;;25.38;8.18;;;;;;;19.14;100.00;97591.09;4960075;28;20043;-68
2023/09/30 07:05:29;;;;;;;19.75;8.25;;;;;;;19.22;100.00;97589.06;4966559;28;20080;-68
2023/09/30 07:07:54;;;;;;;23.27;7.75;;;;;;;19.24;100.00;97581.13;4969100;28;20039;-69
2023/09/30 07:10:20;;;;;;;24.08;7.70;;;;;;;18.51;100.00;97566.63;4973420;28;20457;-68
2023/09/30 07:12:45;;;;;;;19.50;7.70;;;;;;;17.67;100.00;97582.78;4976479;28;20425;-68
2023/09/30 07:15:10;;;;;;;20.00;7.47;;;;;;;16.85;100.00;97572.16;4969413;28;20304;-67
2023/09/30 07:17:36;;;;;;;18.52;7.38;;;;;;;16.58;100.00;97575.94;4975919;28;20042;-68
2023/09/30 07:20:04;;;;;;;20.05;6.88;;;;;;;17.02;100.00;97587.28;4968184;28;20077;-68
2023/09/30 07:22:31;;;;;;;20.95;7.07;;;;;;;17.34;100.00;97585.44;4961477;28;21258;-68
2023/09/30 07:24:57;;;;;;;17.75;6.93;;;;;;;17.42;100.00;97594.56;4962266;28;20108;-68
2023/09/30 07:27:23;;;;;;;18.88;6.50;;;;;;;17.70;100.00;97601.38;4956636;28;20885;-68
2023/09/30 07:29:49;;;;;;;18.17;7.03;;;;;;;18.21;100.00;97608.63;4962675;28;20043;-68
2023/09/30 07:32:14;;;;;;;19.60;6.78;;;;;;;18.58;100.00;97607.41;4965647;28;20042;-68
2023/09/30 07:34:40;;;;;;;23.70;6.88;;;;;;;18.72;100.00;97614.94;4962385;28;20086;-68
2023/09/30 07:37:05;;;;;;;18.52;6.45;;;;;;;17.56;100.00;97614.00;4959709;28;20043;-68
2023/09/30 07:39:31;;;;;;;18.40;6.85;;;;;;;17.20;100.00;97622.16;4960666;28;20043;-68
2023/09/30 07:41:56;;;;;;;19.67;7.10;;;;;;;16.73;100.00;97621.06;4962927;28;20066;-68
2023/09/30 07:44:22;;;;;;;19.25;6.72;;;;;;;16.73;100.00;97628.59;4957718;28;20818;-68
2023/09/30 07:46:47;;;;;;;18.50;6.65;;;;;;;16.80;100.00;97621.13;4970478;28;20122;-68
2023/09/30 07:49:13;;;;;;;18.52;6.75;;;;;;;16.77;100.00;97623.88;4956848;28;20519;-69
2023/09/30 07:51:41;;;;;;;18.67;6.03;;;;;;;16.64;100.00;97628.91;4981183;28;20486;-70
2023/09/30 07:54:06;;;;;;;19.73;6.60;;;;;;;16.51;100.00;97625.66;4962660;28;20031;-69
2023/09/30 07:56:32;;;;;;;17.75;6.20;;;;;;;16.68;100.00;97621.44;4962461;28;20058;-69
2023/09/30 07:58:57;;;;;;;16.05;6.32;;;;;;;16.58;100.00;97611.09;4962877;28;20042;-68
2023/09/30 08:01:23;;;;;;;21.42;6.35;;;;;;;16.79;100.00;97618.75;4958890;28;20641;-69
2023/09/30 08:03:48;;;;;;;19.65;6.10;;;;;;;16.79;100.00;97622.28;4963989;28;20070;-69
2023/09/30 08:06:14;;;;;;;15.68;6.47;;;;;;;16.88;100.00;97615.66;4958086;28;20093;-68
2023/09/30 08:08:39;;;;;;;16.33;6.50;;;;;;;16.86;100.00;97616.03;4992762;28;20042;-68
2023/09/30 08:11:06;;;;;;;15.27;5.90;;;;;;;17.04;100.00;97613.38;4985734;28;20043;-68
2023/09/30 08:13:32;;;;;;;15.45;5.80;;;;;;;17.15;100.00;97619.75;4967946;28;20105;-68
2023/09/30 08:15:59;;;;;;;14.95;6.45;;;;;;;17.15;100.00;97618.97;4966717;28;20055;-68
2023/09/30 08:18:24;;;;;;;16.20;5.88;;;;;;;17.35;100.00;97623.00;4973677;28;20790;-68
2023/09/30 08:20:50;;;;;;;18.63;5.93;;;;;;;17.53;100.00;97628.63;4960851;28;20086;-69
2023/09/30 08:23:15;;;;;;;20.05;6.65;;;;;;;17.33;100.00;97636.47;4968219;28;20519;-68
2023/09/30 08:25:41;;;;;;;15.80;5.68;;;;;;;17.31;100.00;97629.72;4970777;28;20125;-68
2023/09/30 08:28:06;;;;;;;18.45;6.00;;;;;;;17.09;100.00;97631.59;4958058;28;20133;-68
2023/09/30 08:30:35;;;;;;;17.45;6.07;;;;;;;16.94;100.00;97633.47;4979204;28;20043;-69
2023/09/30 08:33:03;;;;;;;19.17;6.25;;;;;;;17.01;100.00;97611.38;4968727;28;20077;-68
2023/09/30 08:35:35;;;;;;;16.77;5.78;;;;;;;17.29;100.00;97619.03;4961409;28;20046;-69
2023/09/30 08:38:02;;;;;;;15.05;5.72;;;;;;;18.06;100.00;97621.69;4965559;28;20255;-69
2023/09/30 08:40:28;;;;;;;14.75;5.90;;;;;;;18.59;100.00;97628.44;4978871;28;20039;-69
2023/09/30 08:42:53;;;;;;;19.02;6.07;;;;;;;17.91;100.00;97622.81;4981785;28;20039;-70
2023/09/30 08:45:19;;;;;;;15.98;5.82;;;;;;;18.09;100.00;97629.19;4971514;28;20477;-69
2023/09/30 08:47:46;;;;;;;16.38;5.90;;;;;;;18.27;100.00;97631.97;4982088;28;20490;-69
2023/09/30 08:50:13;;;;;;;16.35;5.55;;;;;;;18.98;100.00;97640.69;4984721;28;20046;-68
2023/09/30 08:52:43;;;;;;;16.65;5.78;;;;;;;19.65;98.19;97647.22;4967118;28;20046;-69
2023/09/30 08:55:10;;;;;;;13.80;5.30;;;;;;;20.15;95.69;97638.63;4966756;28;20058;-67
2023/09/30 08:57:40;;;;;;;16.17;6.25;;;;;;;19.95;94.87;97626.44;4966345;28;20109;-67
2023/09/30 09:00:07;;;;;;;16.52;6.05;;;;;;;20.04;93.83;97610.09;4960263;28;20043;-67
2023/09/30 09:02:36;;;;;;;16.45;5.82;;;;;;;19.04;100.00;97600.22;4979511;28;20109;-67
2023/09/30 09:05:02;;;;;;;14.18;5.50;;;;;;;19.47;99.77;97603.63;4971001;28;20130;-70
2023/09/30 09:07:28;;;;;;;15.05;5.65;;;;;;;19.82;97.79;97598.31;4972098;28;20039;-70
2023/09/30 09:10:05;;;;;;;14.77;5.95;;;;;;;20.27;92.15;97603.97;4965075;28;20043;-67
2023/09/30 09:12:31;;;;;;;15.05;5.53;;;;;;;19.94;91.42;97608.19;4972321;28;20047;-70
2023/09/30 09:14:56;;;;;;;15.65;5.82;;;;;;;20.35;93.05;97610.28;4964148;28;20043;-69
2023/09/30 09:17:22;;;;;;;16.90;5.43;;;;;;;19.49;96.81;97609.56;4960987;28;20132;-69
2023/09/30 09:19:59;;;;;;;14.52;5.70;;;;;;;19.56;96.51;97614.31;4965329;28;20066;-68
2023/09/30 09:22:37;;;;;;;16.17;6.32;;;;;;;19.47;100.00;97598.09;4963519;28;20043;-68
2023/09/30 09:25:03;;;;;;;16.70;5.75;;;;;;;19.38;98.64;97600.50;4961884;28;20101;-66
2023/09/30 09:27:34;;;;;;;17.42;5.70;;;;;;;19.44;97.82;97603.66;4978237;28;20053;-68
2023/09/30 09:30:17;;;;;;;14.27;5.38;;;;;;;19.99;93.40;97607.75;4965337;28;20043;-67
2023/09/30 09:32:55;;;;;;;14.50;5.93;;;;;;;19.53;93.48;97612.34;4964797;28;20058;-67
2023/09/30 09:35:22;;;;;;;14.00;5.55;;;;;;;19.96;92.10;97619.69;4960237;28;20421;-68
2023/09/30 09:37:57;;;;;;;13.98;5.45;;;;;;;19.43;96.85;97610.41;4982616;28;20085;-69
2023/09/30 09:40:26;;;;;;;15.35;6.13;;;;;;;19.92;91.19;97614.16;4978834;28;20042;-69
2023/09/30 09:42:54;;;;;;;14.93;5.45;;;;;;;19.93;91.36;97612.16;4974756;28;20043;-69
2023/09/30 09:45:24;;;;;;;12.85;5.10;;;;;;;20.28;90.29;97616.69;4959076;28;20059;-71
2023/09/30 09:47:51;;;;;;;14.88;5.85;;;;;;;20.90;81.98;97625.31;4963865;28;20123;-69
2023/09/30 09:50:18;;;;;;;14.13;5.22;;;;;;;21.00;84.24;97619.66;4959475;28;20105;-69
2023/09/30 09:52:45;;;;;;;15.65;6.50;;;;;;;20.62;85.24;97611.28;4967544;28;20066;-69
2023/09/30 09:55:11;;;;;;;19.15;6.25;;;;;;;19.84;91.01;97618.97;4971949;28;20233;-70
2023/09/30 09:57:37;;;;;;;17.73;6.28;;;;;;;19.50;93.75;97615.94;4965254;28;20146;-69
2023/09/30 10:00:08;;;;;;;17.08;6.95;;;;;;;19.35;93.97;97609.63;4962021;28;20043;-68
2023/09/30 10:02:36;;;;;;;15.48;6.10;;;;;;;19.04;96.51;97614.91;4962844;28;20043;-74
2023/09/30 10:05:03;;;;;;;22.10;6.78;;;;;;;19.70;92.48;97612.66;4964639;28;20045;-70
2023/09/30 10:07:34;;;;;;;16.17;6.32;;;;;;;19.71;91.00;97609.47;4962786;28;20086;-69
2023/09/30 10:10:02;;;;;;;18.10;5.80;;;;;;;20.19;86.88;97617.16;4964200;28;20039;-69
2023/09/30 10:12:39;;;;;;;15.13;6.07;;;;;;;20.00;85.78;97618.47;4969463;28;20129;-68
2023/09/30 10:15:23;;;;;;;13.98;5.60;;;;;;;21.33;80.37;97616.50;4959431;28;20054;-67
2023/09/30 10:18:11;;;;;;;17.35;6.57;;;;;;;21.24;78.63;97614.22;4978066;28;20062;-69
2023/09/30 10:20:44;;;;;;;18.55;6.35;;;;;;;23.29;66.58;97614.69;4964557;28;20035;-69
2023/09/30 10:23:33;;;;;;;13.70;5.93;;;;;;;22.53;69.39;97600.50;4964579;28;20034;-68
2023/09/30 10:26:14;;;;;;;16.33;6.57;;;;;;;21.95;73.20;97583.88;4973018;28;20129;-67
2023/09/30 10:28:47;;;;;;;17.05;6.28;;;;;;;21.84;74.19;97578.44;4964484;28;20069;-69
2023/09/30 10:31:15;;;;;;;18.45;7.28;;;;;;;21.36;75.95;97579.47;4972776;28;20441;-70
2023/09/30 10:34:02;;;;;;;17.08;6.53;;;;;;;20.80;80.17;97574.13;4963934;28;20070;-69
2023/09/30 10:36:37;;;;;;;17.83;6.53;;;;;;;22.50;71.47;97563.06;4969097;28;20046;-68
2023/09/30 10:39:03;;;;;;;16.02;5.97;;;;;;;22.53;70.35;97558.66;4967288;28;20042;-68
2023/09/30 10:41:41;;;;;;;12.88;5.32;;;;;;;23.89;66.94;97571.91;4964989;28;20042;-70
2023/09/30 10:44:22;;;;;;;16.83;6.80;;;;;;;23.31;64.60;97577.94;4964042;28;20137;-69
2023/09/30 10:46:48;;;;;;;17.10;6.30;;;;;;;21.63;71.57;97576.75;4962860;28;20042;-69
2023/09/30 10:49:31;;;;;;;16.48;6.32;;;;;;;22.45;67.12;97591.44;4958563;28;20106;-68
2023/09/30 10:51:59;;;;;;;18.52;6.78;;;;;;;22.25;68.31;97585.00;4963548;28;20410;-70
2023/09/30 10:54:27;;;;;;;13.60;5.72;;;;;;;23.46;64.61;97586.81;4973623;28;20190;-68
2023/09/30 10:56:54;;;;;;;16.48;6.15;;;;;;;22.71;64.11;97578.66;4962936;28;20043;-68
2023/09/30 10:59:20;;;;;;;18.30;7.40;;;;;;;23.11;62.76;97569.56;4957678;28;20121;-68
2023/09/30 11:01:46;;;;;;;15.23;6.60;;;;;;;22.79;64.82;97568.13;4962812;28;20053;-68
2023/09/30 11:04:11;;;;;;;15.15;6.65;;;;;;;21.91;69.74;97567.19;4956964;28;20043;-67
2023/09/30 11:06:41;;;;;;;17.15;6.32;;;;;;;23.17;65.25;97565.03;4963183;28;20538;-69
2023/09/30 11:09:12;;;;;;;16.92;6.60;;;;;;;24.75;57.64;97567.03;4958541;28;20455;-70
2023/09/30 11:11:51;;;;;;;18.60;6.90;;;;;;;23.13;62.88;97557.97;4971157;28;20490;-70
2023/09/30 11:14:24;;;;;;;17.70;7.30;;;;;;;21.92;65.72;97554.03;4971834;28;20497;-69